sensor_id;sensor_type;location;lat;lon;timestamp;pressure;altitude;pressure_sealevel;temperature;humidity
60646;BME280;46462;32.608;-117.032;2022-12-18T00:01:23;99340.36;;;20.58;29.42
60646;BME280;46462;32.608;-117.032;2022-12-18T00:03:53;99346.33;;;20.72;29.31
60646;BME280;46462;32.608;-117.032;2022-12-18T00:06:23;99346.99;;;20.66;29.41
60646;BME280;46462;32.608;-117.032;2022-12-18T00:08:52;99351.45;;;20.68;29.36
60646;BME280;46462;32.608;-117.032;2022-12-18T00:11:25;99350.02;;;20.69;29.29
60646;BME280;46462;32.608;-117.032;2022-12-18T00:13:54;99354.20;;;20.74;29.17
60646;BME280;46462;32.608;-117.032;2022-12-18T00:16:25;99353.84;;;20.63;29.40
60646;BME280;46462;32.608;-117.032;2022-12-18T00:18:55;99350.70;;;20.56;29.53
60646;BME280;46462;32.608;-117.032;2022-12-18T00:21:24;99350.49;;;20.65;29.20
60646;BME280;46462;32.608;-117.032;2022-12-18T00:23:54;99348.18;;;20.77;29.10
60646;BME280;46462;32.608;-117.032;2022-12-18T00:26:26;99346.69;;;20.79;29.24
60646;BME280;46462;32.608;-117.032;2022-12-18T00:28:54;99346.47;;;20.79;29.21
60646;BME280;46462;32.608;-117.032;2022-12-18T00:31:25;99351.36;;;20.86;29.14
60646;BME280;46462;32.608;-117.032;2022-12-18T00:33:55;99354.42;;;20.78;29.34
60646;BME280;46462;32.608;-117.032;2022-12-18T00:36:28;99360.32;;;20.79;29.41
60646;BME280;46462;32.608;-117.032;2022-12-18T00:38:56;99363.15;;;20.80;29.36
60646;BME280;46462;32.608;-117.032;2022-12-18T00:41:26;99361.00;;;20.88;29.31
60646;BME280;46462;32.608;-117.032;2022-12-18T00:43:56;99363.39;;;20.85;29.40
60646;BME280;46462;32.608;-117.032;2022-12-18T00:46:26;99365.54;;;20.87;29.29
60646;BME280;46462;32.608;-117.032;2022-12-18T00:48:56;99365.06;;;20.88;29.34
60646;BME280;46462;32.608;-117.032;2022-12-18T00:51:27;99368.10;;;20.92;29.51
60646;BME280;46462;32.608;-117.032;2022-12-18T00:53:57;99370.41;;;20.95;29.43
60646;BME280;46462;32.608;-117.032;2022-12-18T00:56:27;99369.20;;;20.98;29.58
60646;BME280;46462;32.608;-117.032;2022-12-18T00:58:57;99366.62;;;20.90;29.72
60646;BME280;46462;32.608;-117.032;2022-12-18T01:01:27;99366.73;;;20.89;29.63
60646;BME280;46462;32.608;-117.032;2022-12-18T01:03:58;99376.00;;;20.88;29.60
60646;BME280;46462;32.608;-117.032;2022-12-18T01:06:28;99377.32;;;20.88;29.50
60646;BME280;46462;32.608;-117.032;2022-12-18T01:08:58;99377.61;;;20.91;29.70
60646;BME280;46462;32.608;-117.032;2022-12-18T01:11:28;99379.74;;;20.98;29.83
60646;BME280;46462;32.608;-117.032;2022-12-18T01:13:58;99383.96;;;20.94;29.91
60646;BME280;46462;32.608;-117.032;2022-12-18T01:16:29;99389.90;;;20.96;29.82
60646;BME280;46462;32.608;-117.032;2022-12-18T01:18:59;99390.30;;;21.01;29.75
60646;BME280;46462;32.608;-117.032;2022-12-18T01:21:30;99391.78;;;21.00;29.96
60646;BME280;46462;32.608;-117.032;2022-12-18T01:24:00;99392.16;;;20.95;29.79
60646;BME280;46462;32.608;-117.032;2022-12-18T01:26:30;99394.11;;;20.93;29.90
60646;BME280;46462;32.608;-117.032;2022-12-18T01:29:00;99393.04;;;20.99;29.76
60646;BME280;46462;32.608;-117.032;2022-12-18T01:31:32;99388.87;;;20.99;29.76
60646;BME280;46462;32.608;-117.032;2022-12-18T01:34:02;99392.40;;;21.03;29.66
60646;BME280;46462;32.608;-117.032;2022-12-18T01:36:32;99398.20;;;20.98;29.80
60646;BME280;46462;32.608;-117.032;2022-12-18T01:39:03;99398.78;;;21.06;29.48
60646;BME280;46462;32.608;-117.032;2022-12-18T01:41:33;99401.92;;;21.07;29.72
60646;BME280;46462;32.608;-117.032;2022-12-18T01:44:02;99407.17;;;21.09;29.66
60646;BME280;46462;32.608;-117.032;2022-12-18T01:46:32;99413.63;;;21.09;29.91
60646;BME280;46462;32.608;-117.032;2022-12-18T01:49:02;99417.08;;;21.14;29.83
60646;BME280;46462;32.608;-117.032;2022-12-18T01:51:32;99420.91;;;21.16;29.73
60646;BME280;46462;32.608;-117.032;2022-12-18T01:54:03;99425.05;;;21.11;29.59
60646;BME280;46462;32.608;-117.032;2022-12-18T01:56:33;99425.36;;;21.12;29.64
60646;BME280;46462;32.608;-117.032;2022-12-18T01:59:05;99425.16;;;21.17;29.60
60646;BME280;46462;32.608;-117.032;2022-12-18T02:01:34;99424.47;;;21.20;29.61
60646;BME280;46462;32.608;-117.032;2022-12-18T02:06:39;99430.44;;;21.19;29.74
60646;BME280;46462;32.608;-117.032;2022-12-18T02:09:09;99431.13;;;21.18;29.62
60646;BME280;46462;32.608;-117.032;2022-12-18T02:11:42;99430.70;;;21.24;29.45
60646;BME280;46462;32.608;-117.032;2022-12-18T02:14:13;99429.25;;;21.23;29.46
60646;BME280;46462;32.608;-117.032;2022-12-18T02:16:40;99418.92;;;21.22;29.49
60646;BME280;46462;32.608;-117.032;2022-12-18T02:19:13;99414.93;;;21.24;29.57
60646;BME280;46462;32.608;-117.032;2022-12-18T02:21:43;99411.32;;;21.24;29.65
60646;BME280;46462;32.608;-117.032;2022-12-18T02:24:17;99404.11;;;21.15;30.02
60646;BME280;46462;32.608;-117.032;2022-12-18T02:26:38;99400.49;;;21.17;29.87
60646;BME280;46462;32.608;-117.032;2022-12-18T02:29:10;99399.03;;;21.15;29.77
60646;BME280;46462;32.608;-117.032;2022-12-18T02:31:41;99395.06;;;21.14;29.81
60646;BME280;46462;32.608;-117.032;2022-12-18T02:34:08;99391.75;;;21.14;30.24
60646;BME280;46462;32.608;-117.032;2022-12-18T02:36:40;99387.12;;;21.11;30.25
60646;BME280;46462;32.608;-117.032;2022-12-18T02:39:10;99382.29;;;21.16;30.13
60646;BME280;46462;32.608;-117.032;2022-12-18T02:41:38;99381.24;;;21.19;30.11
60646;BME280;46462;32.608;-117.032;2022-12-18T02:44:09;99379.86;;;21.13;30.17
60646;BME280;46462;32.608;-117.032;2022-12-18T02:46:39;99378.42;;;21.13;30.14
60646;BME280;46462;32.608;-117.032;2022-12-18T02:49:17;99377.56;;;21.09;30.22
60646;BME280;46462;32.608;-117.032;2022-12-18T02:51:47;99376.75;;;21.10;30.26
60646;BME280;46462;32.608;-117.032;2022-12-18T02:54:13;99376.14;;;21.09;30.15
60646;BME280;46462;32.608;-117.032;2022-12-18T02:56:42;99373.29;;;21.10;30.29
60646;BME280;46462;32.608;-117.032;2022-12-18T02:59:14;99370.90;;;21.14;30.17
60646;BME280;46462;32.608;-117.032;2022-12-18T03:01:46;99371.21;;;21.12;30.15
60646;BME280;46462;32.608;-117.032;2022-12-18T03:04:13;99373.42;;;21.15;30.31
60646;BME280;46462;32.608;-117.032;2022-12-18T03:06:42;99377.01;;;21.11;30.17
60646;BME280;46462;32.608;-117.032;2022-12-18T03:09:12;99378.42;;;21.03;30.23
60646;BME280;46462;32.608;-117.032;2022-12-18T03:11:43;99381.50;;;21.03;30.38
60646;BME280;46462;32.608;-117.032;2022-12-18T03:14:11;99381.72;;;21.01;30.28
60646;BME280;46462;32.608;-117.032;2022-12-18T03:16:41;99376.50;;;21.00;30.27
60646;BME280;46462;32.608;-117.032;2022-12-18T03:19:14;99370.96;;;21.03;30.35
60646;BME280;46462;32.608;-117.032;2022-12-18T03:21:45;99364.08;;;21.03;30.37
60646;BME280;46462;32.608;-117.032;2022-12-18T03:24:12;99362.68;;;21.01;30.23
60646;BME280;46462;32.608;-117.032;2022-12-18T03:26:44;99361.89;;;21.06;30.31
60646;BME280;46462;32.608;-117.032;2022-12-18T03:29:16;99361.67;;;21.03;30.50
60646;BME280;46462;32.608;-117.032;2022-12-18T03:31:47;99361.25;;;21.01;30.54
60646;BME280;46462;32.608;-117.032;2022-12-18T03:34:15;99358.63;;;20.97;30.55
60646;BME280;46462;32.608;-117.032;2022-12-18T03:36:43;99357.52;;;21.02;30.44
60646;BME280;46462;32.608;-117.032;2022-12-18T03:39:13;99356.55;;;21.05;30.41
60646;BME280;46462;32.608;-117.032;2022-12-18T03:41:46;99349.96;;;21.04;30.47
60646;BME280;46462;32.608;-117.032;2022-12-18T03:44:17;99350.82;;;21.04;30.42
60646;BME280;46462;32.608;-117.032;2022-12-18T03:46:50;99348.45;;;21.08;30.46
60646;BME280;46462;32.608;-117.032;2022-12-18T03:49:21;99345.68;;;21.06;30.53
60646;BME280;46462;32.608;-117.032;2022-12-18T03:51:50;99344.55;;;21.09;30.37
60646;BME280;46462;32.608;-117.032;2022-12-18T03:54:15;99342.61;;;21.07;30.42
60646;BME280;46462;32.608;-117.032;2022-12-18T03:56:48;99347.07;;;21.08;30.47
60646;BME280;46462;32.608;-117.032;2022-12-18T03:59:16;99351.44;;;21.02;30.55
60646;BME280;46462;32.608;-117.032;2022-12-18T04:01:48;99352.46;;;20.96;30.55
60646;BME280;46462;32.608;-117.032;2022-12-18T04:04:17;99352.37;;;20.95;30.69
60646;BME280;46462;32.608;-117.032;2022-12-18T04:06:47;99356.30;;;20.95;30.66
60646;BME280;46462;32.608;-117.032;2022-12-18T04:09:16;99355.79;;;20.90;30.73
60646;BME280;46462;32.608;-117.032;2022-12-18T04:11:47;99353.59;;;20.87;30.84
60646;BME280;46462;32.608;-117.032;2022-12-18T04:14:16;99358.10;;;20.89;30.63
60646;BME280;46462;32.608;-117.032;2022-12-18T04:16:46;99365.85;;;20.90;30.66
60646;BME280;46462;32.608;-117.032;2022-12-18T04:19:17;99373.44;;;20.81;30.84
60646;BME280;46462;32.608;-117.032;2022-12-18T04:21:47;99372.01;;;20.79;30.83
60646;BME280;46462;32.608;-117.032;2022-12-18T04:24:17;99372.07;;;20.78;30.89
60646;BME280;46462;32.608;-117.032;2022-12-18T04:26:47;99370.23;;;20.77;30.86
60646;BME280;46462;32.608;-117.032;2022-12-18T04:29:18;99370.35;;;20.78;30.92
60646;BME280;46462;32.608;-117.032;2022-12-18T04:31:48;99366.85;;;20.77;30.81
60646;BME280;46462;32.608;-117.032;2022-12-18T04:34:18;99363.92;;;20.73;30.94
60646;BME280;46462;32.608;-117.032;2022-12-18T04:36:49;99366.21;;;20.85;30.70
60646;BME280;46462;32.608;-117.032;2022-12-18T04:39:19;99365.79;;;20.84;30.82
60646;BME280;46462;32.608;-117.032;2022-12-18T04:41:49;99365.78;;;20.80;30.88
60646;BME280;46462;32.608;-117.032;2022-12-18T04:44:19;99364.04;;;20.73;30.97
60646;BME280;46462;32.608;-117.032;2022-12-18T04:46:49;99354.97;;;20.84;30.83
60646;BME280;46462;32.608;-117.032;2022-12-18T04:49:20;99354.31;;;20.77;30.94
60646;BME280;46462;32.608;-117.032;2022-12-18T04:51:50;99354.62;;;20.76;30.94
60646;BME280;46462;32.608;-117.032;2022-12-18T04:54:20;99355.02;;;20.79;30.97
60646;BME280;46462;32.608;-117.032;2022-12-18T04:56:50;99350.47;;;20.82;30.87
60646;BME280;46462;32.608;-117.032;2022-12-18T04:59:21;99351.77;;;20.84;30.84
60646;BME280;46462;32.608;-117.032;2022-12-18T05:01:51;99349.52;;;20.78;30.90
60646;BME280;46462;32.608;-117.032;2022-12-18T05:04:21;99353.26;;;20.74;30.92
60646;BME280;46462;32.608;-117.032;2022-12-18T05:06:51;99355.15;;;20.75;30.98
60646;BME280;46462;32.608;-117.032;2022-12-18T05:09:22;99352.91;;;20.78;30.90
60646;BME280;46462;32.608;-117.032;2022-12-18T05:11:52;99352.25;;;20.78;30.94
60646;BME280;46462;32.608;-117.032;2022-12-18T05:14:22;99352.48;;;20.74;30.97
60646;BME280;46462;32.608;-117.032;2022-12-18T05:16:52;99357.01;;;20.71;31.23
60646;BME280;46462;32.608;-117.032;2022-12-18T05:19:22;99364.99;;;20.68;31.12
60646;BME280;46462;32.608;-117.032;2022-12-18T05:21:53;99367.96;;;20.72;31.13
60646;BME280;46462;32.608;-117.032;2022-12-18T05:24:23;99365.80;;;20.69;31.08
60646;BME280;46462;32.608;-117.032;2022-12-18T05:26:53;99366.61;;;20.70;31.01
60646;BME280;46462;32.608;-117.032;2022-12-18T05:29:24;99365.69;;;20.72;31.04
60646;BME280;46462;32.608;-117.032;2022-12-18T05:31:54;99369.51;;;20.71;30.99
60646;BME280;46462;32.608;-117.032;2022-12-18T05:34:24;99370.95;;;20.70;31.01
60646;BME280;46462;32.608;-117.032;2022-12-18T05:36:54;99371.32;;;20.69;31.09
60646;BME280;46462;32.608;-117.032;2022-12-18T05:39:24;99371.87;;;20.64;31.16
60646;BME280;46462;32.608;-117.032;2022-12-18T05:41:55;99374.76;;;20.66;31.07
60646;BME280;46462;32.608;-117.032;2022-12-18T05:44:25;99377.33;;;20.64;31.16
60646;BME280;46462;32.608;-117.032;2022-12-18T05:46:55;99373.58;;;20.72;31.05
60646;BME280;46462;32.608;-117.032;2022-12-18T05:49:26;99375.22;;;20.66;31.09
60646;BME280;46462;32.608;-117.032;2022-12-18T05:51:56;99374.36;;;20.59;31.31
60646;BME280;46462;32.608;-117.032;2022-12-18T05:54:28;99375.99;;;20.59;31.23
60646;BME280;46462;32.608;-117.032;2022-12-18T05:56:56;99375.58;;;20.65;31.22
60646;BME280;46462;32.608;-117.032;2022-12-18T05:59:26;99376.04;;;20.60;31.15
60646;BME280;46462;32.608;-117.032;2022-12-18T06:01:57;99379.81;;;20.60;31.24
60646;BME280;46462;32.608;-117.032;2022-12-18T06:04:27;99383.57;;;20.63;31.22
60646;BME280;46462;32.608;-117.032;2022-12-18T06:06:57;99380.52;;;20.69;31.05
60646;BME280;46462;32.608;-117.032;2022-12-18T06:09:29;99384.12;;;20.63;31.21
60646;BME280;46462;32.608;-117.032;2022-12-18T06:11:58;99387.24;;;20.66;31.11
60646;BME280;46462;32.608;-117.032;2022-12-18T06:14:28;99387.34;;;20.59;31.22
60646;BME280;46462;32.608;-117.032;2022-12-18T06:16:58;99381.34;;;20.55;31.24
60646;BME280;46462;32.608;-117.032;2022-12-18T06:19:28;99386.67;;;20.53;31.33
60646;BME280;46462;32.608;-117.032;2022-12-18T06:21:59;99389.30;;;20.56;31.34
60646;BME280;46462;32.608;-117.032;2022-12-18T06:24:29;99395.36;;;20.54;31.36
60646;BME280;46462;32.608;-117.032;2022-12-18T06:26:59;99397.19;;;20.57;31.22
60646;BME280;46462;32.608;-117.032;2022-12-18T06:29:29;99395.90;;;20.57;31.24
60646;BME280;46462;32.608;-117.032;2022-12-18T06:32:00;99397.12;;;20.56;31.17
60646;BME280;46462;32.608;-117.032;2022-12-18T06:34:30;99398.10;;;20.53;31.28
60646;BME280;46462;32.608;-117.032;2022-12-18T06:37:00;99393.55;;;20.49;31.32
60646;BME280;46462;32.608;-117.032;2022-12-18T06:39:30;99392.22;;;20.52;31.25
60646;BME280;46462;32.608;-117.032;2022-12-18T06:42:01;99389.13;;;20.48;31.29
60646;BME280;46462;32.608;-117.032;2022-12-18T06:44:31;99388.52;;;20.54;31.22
60646;BME280;46462;32.608;-117.032;2022-12-18T06:47:01;99385.59;;;20.46;31.32
60646;BME280;46462;32.608;-117.032;2022-12-18T06:49:31;99386.69;;;20.45;31.35
60646;BME280;46462;32.608;-117.032;2022-12-18T06:52:02;99384.65;;;20.46;31.34
60646;BME280;46462;32.608;-117.032;2022-12-18T06:54:32;99383.93;;;20.37;31.41
60646;BME280;46462;32.608;-117.032;2022-12-18T06:57:02;99378.31;;;20.36;31.46
60646;BME280;46462;32.608;-117.032;2022-12-18T06:59:32;99381.63;;;20.36;31.50
60646;BME280;46462;32.608;-117.032;2022-12-18T07:02:02;99383.91;;;20.51;31.27
60646;BME280;46462;32.608;-117.032;2022-12-18T07:04:33;99382.87;;;20.47;31.24
60646;BME280;46462;32.608;-117.032;2022-12-18T07:07:03;99383.63;;;20.46;31.24
60646;BME280;46462;32.608;-117.032;2022-12-18T07:09:33;99380.51;;;20.37;31.49
60646;BME280;46462;32.608;-117.032;2022-12-18T07:12:04;99380.50;;;20.46;31.27
60646;BME280;46462;32.608;-117.032;2022-12-18T07:14:34;99375.34;;;20.42;31.29
60646;BME280;46462;32.608;-117.032;2022-12-18T07:17:04;99368.88;;;20.46;31.33
60646;BME280;46462;32.608;-117.032;2022-12-18T07:19:34;99364.97;;;20.46;31.30
60646;BME280;46462;32.608;-117.032;2022-12-18T07:22:05;99360.33;;;20.50;31.22
60646;BME280;46462;32.608;-117.032;2022-12-18T07:24:35;99357.44;;;20.40;31.33
60646;BME280;46462;32.608;-117.032;2022-12-18T07:27:05;99359.65;;;20.37;31.38
60646;BME280;46462;32.608;-117.032;2022-12-18T07:29:35;99361.17;;;20.35;31.38
60646;BME280;46462;32.608;-117.032;2022-12-18T07:32:06;99364.69;;;20.41;31.32
60646;BME280;46462;32.608;-117.032;2022-12-18T07:34:36;99364.21;;;20.34;31.43
60646;BME280;46462;32.608;-117.032;2022-12-18T07:37:06;99359.01;;;20.35;31.41
60646;BME280;46462;32.608;-117.032;2022-12-18T07:39:36;99351.32;;;20.22;31.56
60646;BME280;46462;32.608;-117.032;2022-12-18T07:42:06;99349.77;;;20.32;31.55
60646;BME280;46462;32.608;-117.032;2022-12-18T07:44:37;99351.51;;;20.28;31.47
60646;BME280;46462;32.608;-117.032;2022-12-18T07:47:07;99349.57;;;20.38;31.48
60646;BME280;46462;32.608;-117.032;2022-12-18T07:49:37;99346.17;;;20.30;31.58
60646;BME280;46462;32.608;-117.032;2022-12-18T07:52:08;99339.84;;;20.30;31.45
60646;BME280;46462;32.608;-117.032;2022-12-18T07:54:38;99338.24;;;20.29;31.49
60646;BME280;46462;32.608;-117.032;2022-12-18T07:57:08;99336.39;;;20.31;31.51
60646;BME280;46462;32.608;-117.032;2022-12-18T07:59:38;99330.09;;;20.23;31.67
60646;BME280;46462;32.608;-117.032;2022-12-18T08:02:08;99322.77;;;20.26;31.52
60646;BME280;46462;32.608;-117.032;2022-12-18T08:04:39;99313.63;;;20.25;31.47
60646;BME280;46462;32.608;-117.032;2022-12-18T08:07:09;99307.53;;;20.35;31.34
60646;BME280;46462;32.608;-117.032;2022-12-18T08:09:39;99301.26;;;20.32;31.34
60646;BME280;46462;32.608;-117.032;2022-12-18T08:12:09;99298.85;;;20.31;31.25
60646;BME280;46462;32.608;-117.032;2022-12-18T08:14:40;99291.99;;;20.20;31.47
60646;BME280;46462;32.608;-117.032;2022-12-18T08:17:10;99285.67;;;20.20;31.37
60646;BME280;46462;32.608;-117.032;2022-12-18T08:19:40;99276.69;;;20.19;31.55
60646;BME280;46462;32.608;-117.032;2022-12-18T08:22:11;99262.90;;;20.24;31.34
60646;BME280;46462;32.608;-117.032;2022-12-18T08:24:41;99273.79;;;20.10;31.47
60646;BME280;46462;32.608;-117.032;2022-12-18T08:27:11;99294.62;;;20.12;31.48
60646;BME280;46462;32.608;-117.032;2022-12-18T08:29:41;99303.02;;;20.16;31.58
60646;BME280;46462;32.608;-117.032;2022-12-18T08:32:11;99303.11;;;20.30;31.24
60646;BME280;46462;32.608;-117.032;2022-12-18T08:34:42;99304.14;;;20.30;31.03
60646;BME280;46462;32.608;-117.032;2022-12-18T08:37:12;99305.08;;;20.35;31.06
60646;BME280;46462;32.608;-117.032;2022-12-18T08:39:42;99305.15;;;20.33;31.04
60646;BME280;46462;32.608;-117.032;2022-12-18T08:42:12;99306.47;;;20.32;31.12
60646;BME280;46462;32.608;-117.032;2022-12-18T08:44:43;99308.59;;;20.23;31.19
60646;BME280;46462;32.608;-117.032;2022-12-18T08:47:13;99303.71;;;20.38;30.85
60646;BME280;46462;32.608;-117.032;2022-12-18T08:49:43;99296.99;;;20.28;30.89
60646;BME280;46462;32.608;-117.032;2022-12-18T08:52:13;99302.47;;;20.35;30.81
60646;BME280;46462;32.608;-117.032;2022-12-18T08:54:44;99310.17;;;20.22;31.04
60646;BME280;46462;32.608;-117.032;2022-12-18T08:57:14;99310.46;;;20.20;31.16
60646;BME280;46462;32.608;-117.032;2022-12-18T08:59:44;99301.28;;;20.25;31.02
60646;BME280;46462;32.608;-117.032;2022-12-18T09:02:14;99296.64;;;20.35;30.85
60646;BME280;46462;32.608;-117.032;2022-12-18T09:04:47;99296.16;;;20.29;30.95
60646;BME280;46462;32.608;-117.032;2022-12-18T09:07:15;99299.18;;;20.13;31.13
60646;BME280;46462;32.608;-117.032;2022-12-18T09:09:45;99302.06;;;20.09;31.30
60646;BME280;46462;32.608;-117.032;2022-12-18T09:12:15;99303.38;;;20.18;31.08
60646;BME280;46462;32.608;-117.032;2022-12-18T09:14:46;99305.03;;;20.05;31.37
60646;BME280;46462;32.608;-117.032;2022-12-18T09:17:16;99306.61;;;20.13;31.22
60646;BME280;46462;32.608;-117.032;2022-12-18T09:19:46;99310.99;;;20.09;31.25
60646;BME280;46462;32.608;-117.032;2022-12-18T09:22:17;99308.62;;;20.04;31.36
60646;BME280;46462;32.608;-117.032;2022-12-18T09:24:47;99310.45;;;20.03;31.40
60646;BME280;46462;32.608;-117.032;2022-12-18T09:27:17;99310.54;;;20.02;31.37
60646;BME280;46462;32.608;-117.032;2022-12-18T09:29:47;99311.15;;;19.96;31.43
60646;BME280;46462;32.608;-117.032;2022-12-18T09:32:17;99316.10;;;20.00;31.34
60646;BME280;46462;32.608;-117.032;2022-12-18T09:34:48;99312.15;;;19.92;31.62
60646;BME280;46462;32.608;-117.032;2022-12-18T09:37:18;99307.23;;;20.00;31.51
60646;BME280;46462;32.608;-117.032;2022-12-18T09:39:48;99307.75;;;20.01;31.38
60646;BME280;46462;32.608;-117.032;2022-12-18T09:42:21;99309.69;;;20.02;31.38
60646;BME280;46462;32.608;-117.032;2022-12-18T09:44:51;99309.02;;;20.04;31.29
60646;BME280;46462;32.608;-117.032;2022-12-18T09:47:23;99305.97;;;20.03;31.31
60646;BME280;46462;32.608;-117.032;2022-12-18T09:49:53;99297.74;;;20.03;31.25
60646;BME280;46462;32.608;-117.032;2022-12-18T09:52:24;99291.23;;;19.95;31.37
60646;BME280;46462;32.608;-117.032;2022-12-18T09:54:54;99290.50;;;19.96;31.45
60646;BME280;46462;32.608;-117.032;2022-12-18T09:57:23;99294.13;;;20.00;31.38
60646;BME280;46462;32.608;-117.032;2022-12-18T09:59:55;99295.12;;;19.98;31.43
60646;BME280;46462;32.608;-117.032;2022-12-18T10:02:23;99289.37;;;20.00;31.39
60646;BME280;46462;32.608;-117.032;2022-12-18T10:05:00;99288.17;;;19.91;31.51
60646;BME280;46462;32.608;-117.032;2022-12-18T10:07:27;99301.28;;;19.99;31.45
60646;BME280;46462;32.608;-117.032;2022-12-18T10:09:56;99311.42;;;19.94;31.37
60646;BME280;46462;32.608;-117.032;2022-12-18T10:12:25;99315.89;;;19.90;31.43
60646;BME280;46462;32.608;-117.032;2022-12-18T10:14:56;99314.36;;;19.96;31.42
60646;BME280;46462;32.608;-117.032;2022-12-18T10:17:29;99313.93;;;20.01;31.36
60646;BME280;46462;32.608;-117.032;2022-12-18T10:19:56;99315.88;;;19.94;31.52
60646;BME280;46462;32.608;-117.032;2022-12-18T10:22:33;99315.50;;;19.94;31.40
60646;BME280;46462;32.608;-117.032;2022-12-18T10:24:58;99320.54;;;19.84;31.70
60646;BME280;46462;32.608;-117.032;2022-12-18T10:27:26;99320.84;;;19.87;31.51
60646;BME280;46462;32.608;-117.032;2022-12-18T10:29:54;99322.18;;;19.90;31.46
60646;BME280;46462;32.608;-117.032;2022-12-18T10:32:25;99319.51;;;19.89;31.57
60646;BME280;46462;32.608;-117.032;2022-12-18T10:34:55;99314.92;;;19.89;31.64
60646;BME280;46462;32.608;-117.032;2022-12-18T10:37:27;99317.76;;;19.84;31.69
60646;BME280;46462;32.608;-117.032;2022-12-18T10:40:07;99316.19;;;19.89;31.50
60646;BME280;46462;32.608;-117.032;2022-12-18T10:42:24;99317.17;;;19.83;31.74
60646;BME280;46462;32.608;-117.032;2022-12-18T10:45:02;99315.99;;;19.81;31.76
60646;BME280;46462;32.608;-117.032;2022-12-18T10:47:25;99315.98;;;19.88;31.45
60646;BME280;46462;32.608;-117.032;2022-12-18T10:49:55;99315.16;;;19.89;31.64
60646;BME280;46462;32.608;-117.032;2022-12-18T10:52:26;99315.79;;;19.88;31.75
60646;BME280;46462;32.608;-117.032;2022-12-18T10:54:58;99313.16;;;19.74;31.78
60646;BME280;46462;32.608;-117.032;2022-12-18T10:57:32;99311.90;;;19.80;31.74
60646;BME280;46462;32.608;-117.032;2022-12-18T10:59:58;99306.74;;;19.77;31.80
60646;BME280;46462;32.608;-117.032;2022-12-18T11:02:34;99303.79;;;19.78;31.77
60646;BME280;46462;32.608;-117.032;2022-12-18T11:04:57;99305.91;;;19.76;31.82
60646;BME280;46462;32.608;-117.032;2022-12-18T11:10:01;99302.70;;;19.75;31.80
60646;BME280;46462;32.608;-117.032;2022-12-18T11:12:29;99302.56;;;19.81;31.55
60646;BME280;46462;32.608;-117.032;2022-12-18T11:14:58;99302.17;;;19.85;31.60
60646;BME280;46462;32.608;-117.032;2022-12-18T11:17:31;99295.99;;;19.84;31.64
60646;BME280;46462;32.608;-117.032;2022-12-18T11:19:59;99294.28;;;19.80;31.70
60646;BME280;46462;32.608;-117.032;2022-12-18T11:22:30;99296.08;;;19.81;31.75
60646;BME280;46462;32.608;-117.032;2022-12-18T11:25:01;99296.85;;;19.89;31.57
60646;BME280;46462;32.608;-117.032;2022-12-18T11:27:30;99292.42;;;19.71;31.71
60646;BME280;46462;32.608;-117.032;2022-12-18T11:30:08;99286.50;;;19.70;31.78
60646;BME280;46462;32.608;-117.032;2022-12-18T11:32:35;99284.08;;;19.72;31.83
60646;BME280;46462;32.608;-117.032;2022-12-18T11:35:09;99280.05;;;19.76;31.84
60646;BME280;46462;32.608;-117.032;2022-12-18T11:37:32;99275.75;;;19.77;31.67
60646;BME280;46462;32.608;-117.032;2022-12-18T11:40:03;99277.85;;;19.74;31.81
60646;BME280;46462;32.608;-117.032;2022-12-18T11:42:37;99281.60;;;19.71;31.76
60646;BME280;46462;32.608;-117.032;2022-12-18T11:45:08;99280.27;;;19.79;31.56
60646;BME280;46462;32.608;-117.032;2022-12-18T11:47:37;99279.76;;;19.69;31.80
60646;BME280;46462;32.608;-117.032;2022-12-18T11:50:05;99277.11;;;19.77;31.64
60646;BME280;46462;32.608;-117.032;2022-12-18T11:52:35;99277.87;;;19.72;31.70
60646;BME280;46462;32.608;-117.032;2022-12-18T11:55:10;99281.25;;;19.62;31.91
60646;BME280;46462;32.608;-117.032;2022-12-18T11:57:37;99281.73;;;19.71;31.75
60646;BME280;46462;32.608;-117.032;2022-12-18T12:00:13;99282.38;;;19.66;31.76
60646;BME280;46462;32.608;-117.032;2022-12-18T12:02:48;99281.15;;;19.64;31.92
60646;BME280;46462;32.608;-117.032;2022-12-18T12:07:44;99281.71;;;19.65;31.79
60646;BME280;46462;32.608;-117.032;2022-12-18T12:10:18;99281.95;;;19.52;32.00
60646;BME280;46462;32.608;-117.032;2022-12-18T12:12:48;99278.87;;;19.62;31.89
60646;BME280;46462;32.608;-117.032;2022-12-18T12:15:16;99278.08;;;19.58;32.18
60646;BME280;46462;32.608;-117.032;2022-12-18T12:17:42;99279.23;;;19.54;32.04
60646;BME280;46462;32.608;-117.032;2022-12-18T12:20:15;99284.37;;;19.49;32.36
60646;BME280;46462;32.608;-117.032;2022-12-18T12:22:45;99283.70;;;19.59;31.99
60646;BME280;46462;32.608;-117.032;2022-12-18T12:25:21;99288.01;;;19.55;31.99
60646;BME280;46462;32.608;-117.032;2022-12-18T12:27:46;99288.33;;;19.55;32.14
60646;BME280;46462;32.608;-117.032;2022-12-18T12:30:15;99290.61;;;19.49;31.92
60646;BME280;46462;32.608;-117.032;2022-12-18T12:32:48;99286.41;;;19.60;31.71
60646;BME280;46462;32.608;-117.032;2022-12-18T12:35:22;99283.41;;;19.55;31.92
60646;BME280;46462;32.608;-117.032;2022-12-18T12:37:48;99282.63;;;19.56;31.62
60646;BME280;46462;32.608;-117.032;2022-12-18T12:40:16;99282.78;;;19.64;31.65
60646;BME280;46462;32.608;-117.032;2022-12-18T12:42:45;99282.15;;;19.57;31.99
60646;BME280;46462;32.608;-117.032;2022-12-18T12:45:18;99287.40;;;19.50;31.62
60646;BME280;46462;32.608;-117.032;2022-12-18T12:47:42;99288.69;;;19.49;32.09
60646;BME280;46462;32.608;-117.032;2022-12-18T12:50:16;99287.94;;;19.56;31.63
60646;BME280;46462;32.608;-117.032;2022-12-18T12:52:45;99288.89;;;19.56;32.06